Time;durP1;ratioP1;P1;durP2;ratioP2;P2;SDS_P1;SDS_P2;PMS_P1;PMS_P2;Temp;Humidity;BMP_temperature;BMP_pressure;BME280_temperature;BME280_humidity;BME280_pressure;Samples;Min_cycle;Max_cycle;Signal;HPM_P1;HPM_P2
2021/06/19 00:00:33;;;;;;;9.80;3.50;;;;;;;23.22;59.82;98554.19;4992142;28;20499;-70
2021/06/19 00:02:59;;;;;;;6.72;2.55;;;;;;;23.47;57.73;98583.44;4980724;28;20027;-71
2021/06/19 00:05:26;;;;;;;12.20;3.10;;;;;;;23.41;57.70;98573.59;4978583;28;20392;-71
2021/06/19 00:07:51;;;;;;;12.18;3.38;;;;;;;23.35;58.42;98577.53;4991989;28;20038;-71
2021/06/19 00:10:18;;;;;;;9.25;2.92;;;;;;;23.29;58.63;98587.81;4992508;28;20113;-70
2021/06/19 00:12:45;;;;;;;7.85;2.85;;;;;;;23.43;58.58;98596.22;4995079;28;20497;-71
2021/06/19 00:15:13;;;;;;;7.53;3.05;;;;;;;23.33;59.02;98575.03;4987238;28;20038;-71
2021/06/19 00:17:39;;;;;;;6.65;2.67;;;;;;;23.45;58.98;98569.13;4988609;28;20503;-71
2021/06/19 00:20:06;;;;;;;8.45;3.10;;;;;;;23.41;58.98;98551.50;4989159;28;20061;-70
2021/06/19 00:22:31;;;;;;;10.32;3.80;;;;;;;23.29;59.79;98574.00;4987901;28;20022;-71
2021/06/19 00:24:57;;;;;;;12.63;3.53;;;;;;;23.21;60.01;98582.91;4987520;28;20041;-71
2021/06/19 00:27:22;;;;;;;11.98;3.45;;;;;;;23.12;59.95;98595.69;4987167;28;20093;-70
2021/06/19 00:29:47;;;;;;;9.38;3.03;;;;;;;23.22;59.15;98598.38;4989114;28;20136;-70
2021/06/19 00:32:13;;;;;;;5.55;2.60;;;;;;;23.29;58.83;98612.66;4989158;28;20085;-71
2021/06/19 00:34:38;;;;;;;9.48;3.22;;;;;;;23.29;58.44;98631.97;4988293;28;20030;-71
2021/06/19 00:37:03;;;;;;;15.27;3.30;;;;;;;23.32;58.05;98631.38;4990282;28;20121;-71
2021/06/19 00:39:29;;;;;;;11.00;3.05;;;;;;;23.27;57.92;98623.16;4992296;28;20026;-71
2021/06/19 00:41:54;;;;;;;9.25;3.03;;;;;;;23.14;58.32;98610.03;4991078;28;20026;-71
2021/06/19 00:44:21;;;;;;;12.73;3.15;;;;;;;23.08;58.31;98613.94;4990546;28;20432;-71
2021/06/19 00:46:53;;;;;;;9.38;3.20;;;;;;;23.15;58.40;98639.25;4992859;28;20473;-71
2021/06/19 00:49:23;;;;;;;8.93;3.20;;;;;;;22.92;59.04;98627.00;4991030;28;20037;-71
2021/06/19 00:51:49;;;;;;;13.02;3.20;;;;;;;22.97;59.90;98663.69;4996019;28;20035;-71
2021/06/19 00:54:15;;;;;;;8.95;3.50;;;;;;;22.78;61.17;98678.44;4987801;28;20396;-71
2021/06/19 00:56:41;;;;;;;10.57;3.35;;;;;;;22.39;61.21;98679.22;4991730;28;20030;-70
2021/06/19 00:59:07;;;;;;;8.68;3.33;;;;;;;22.09;63.58;98648.75;4990101;28;20029;-70
2021/06/19 01:01:33;;;;;;;9.15;3.03;;;;;;;22.07;63.04;98656.47;4991793;28;20030;-70
2021/06/19 01:04:00;;;;;;;12.82;3.33;;;;;;;22.16;63.21;98681.50;4991172;28;20029;-70
2021/06/19 01:06:26;;;;;;;6.57;3.28;;;;;;;22.09;64.24;98664.47;4991667;28;20030;-70
2021/06/19 01:08:51;;;;;;;9.65;3.45;;;;;;;22.06;64.05;98646.56;4999367;28;20442;-70
2021/06/19 01:11:21;;;;;;;10.95;3.40;;;;;;;22.15;62.52;98634.94;5004706;28;20113;-71
2021/06/19 01:13:48;;;;;;;15.23;3.67;;;;;;;22.27;62.03;98647.31;4987536;28;20048;-70
2021/06/19 01:16:14;;;;;;;19.60;3.83;;;;;;;22.13;62.99;98624.19;4990471;28;20045;-71
2021/06/19 01:18:39;;;;;;;14.32;3.10;;;;;;;22.34;61.69;98641.47;4991649;28;20065;-71
2021/06/19 01:21:12;;;;;;;14.43;3.10;;;;;;;22.40;62.25;98615.56;4990111;28;20038;-70
2021/06/19 01:23:37;;;;;;;13.20;3.65;;;;;;;22.53;62.65;98639.72;4991765;28;20022;-70
2021/06/19 01:26:03;;;;;;;10.23;3.40;;;;;;;22.42;63.50;98635.38;4992389;28;20040;-71
2021/06/19 01:28:28;;;;;;;17.10;3.58;;;;;;;22.28;64.65;98634.34;4990857;28;20099;-70
2021/06/19 01:30:53;;;;;;;20.45;3.22;;;;;;;22.15;64.31;98621.19;4989617;28;20026;-71
2021/06/19 01:33:20;;;;;;;13.52;3.10;;;;;;;22.23;64.04;98637.16;4990690;28;20062;-71
2021/06/19 01:35:45;;;;;;;9.65;3.10;;;;;;;22.20;64.25;98635.78;4989631;28;20038;-71
2021/06/19 01:38:11;;;;;;;9.95;2.90;;;;;;;22.14;64.07;98627.78;4990341;28;20077;-71
2021/06/19 01:40:36;;;;;;;12.98;3.55;;;;;;;22.10;63.51;98599.97;4990644;28;20030;-73
2021/06/19 01:43:02;;;;;;;13.43;3.72;;;;;;;22.30;63.30;98623.88;4990747;28;20407;-71
2021/06/19 01:45:33;;;;;;;9.98;3.55;;;;;;;22.24;63.80;98606.56;4990552;28;20045;-71
2021/06/19 01:48:04;;;;;;;14.23;3.60;;;;;;;22.36;65.36;98608.94;4988371;28;20041;-70
2021/06/19 01:50:30;;;;;;;10.52;3.50;;;;;;;22.13;66.96;98623.38;4991376;28;20026;-70
2021/06/19 01:52:56;;;;;;;13.75;3.58;;;;;;;22.15;67.45;98632.19;4990643;28;20396;-70
2021/06/19 01:55:22;;;;;;;17.33;4.97;;;;;;;22.08;69.79;98638.00;4990080;28;20030;-70
2021/06/19 01:57:51;;;;;;;9.15;3.92;;;;;;;21.93;70.68;98627.91;4988621;28;20030;-70
2021/06/19 02:00:24;;;;;;;19.83;4.85;;;;;;;21.64;72.31;98609.28;4990583;28;20431;-70
2021/06/19 02:02:50;;;;;;;13.68;4.00;;;;;;;21.55;72.86;98627.47;4989173;28;20045;-70
2021/06/19 02:05:17;;;;;;;17.17;3.97;;;;;;;21.34;72.86;98621.16;4990621;28;20450;-70
2021/06/19 02:07:48;;;;;;;11.32;4.13;;;;;;;21.22;74.02;98606.84;4991030;28;20057;-70
2021/06/19 02:10:14;;;;;;;15.93;4.47;;;;;;;21.07;73.42;98576.66;4991283;28;20480;-70
2021/06/19 02:12:40;;;;;;;13.70;4.20;;;;;;;21.35;72.91;98587.03;4995610;28;20084;-70
2021/06/19 02:15:06;;;;;;;11.30;4.30;;;;;;;21.33;74.35;98593.94;4977045;28;20035;-70
2021/06/19 02:17:31;;;;;;;10.88;4.20;;;;;;;21.45;75.39;98619.22;4990035;28;20399;-71
2021/06/19 02:19:57;;;;;;;15.13;4.43;;;;;;;21.24;74.80;98594.47;4990736;28;20034;-70
2021/06/19 02:22:22;;;;;;;10.98;4.32;;;;;;;21.24;74.47;98571.63;4990698;28;20035;-70
2021/06/19 02:24:47;;;;;;;15.25;4.53;;;;;;;21.19;75.22;98590.91;4988969;28;20507;-70
2021/06/19 02:27:14;;;;;;;12.02;4.63;;;;;;;21.09;75.82;98611.03;4990847;28;20050;-71
2021/06/19 02:29:41;;;;;;;15.23;5.07;;;;;;;21.07;75.93;98602.22;4989161;28;20045;-70
2021/06/19 02:32:08;;;;;;;13.10;5.72;;;;;;;20.94;76.59;98598.09;4989387;28;20134;-71
2021/06/19 02:34:34;;;;;;;11.52;4.97;;;;;;;20.89;76.59;98594.53;4989222;28;20702;-71
2021/06/19 02:36:59;;;;;;;15.57;4.18;;;;;;;21.00;75.18;98593.41;4989266;28;20123;-71
2021/06/19 02:39:25;;;;;;;10.80;4.68;;;;;;;20.82;76.48;98588.47;4989124;28;20037;-71
2021/06/19 02:41:50;;;;;;;18.58;4.32;;;;;;;20.74;77.20;98584.34;4990068;28;20034;-71
2021/06/19 02:44:15;;;;;;;7.93;3.95;;;;;;;20.73;78.13;98569.78;4989609;28;20042;-71
2021/06/19 02:46:41;;;;;;;16.02;4.38;;;;;;;20.71;78.13;98569.22;4990605;28;20049;-71
2021/06/19 02:49:07;;;;;;;14.18;4.20;;;;;;;20.72;78.02;98564.56;4989903;28;20038;-70
2021/06/19 02:51:32;;;;;;;14.25;4.63;;;;;;;20.61;77.96;98562.91;4990070;28;20109;-70
2021/06/19 02:53:58;;;;;;;14.13;4.10;;;;;;;20.53;77.54;98567.00;4987898;28;20521;-69
2021/06/19 02:56:23;;;;;;;11.45;4.35;;;;;;;20.72;78.46;98592.91;4987957;28;20030;-70
2021/06/19 02:58:49;;;;;;;15.10;4.80;;;;;;;20.53;79.06;98567.00;4989384;28;20041;-70
2021/06/19 03:01:14;;;;;;;18.73;5.22;;;;;;;20.48;80.40;98565.06;4990096;28;20036;-70
2021/06/19 03:03:39;;;;;;;7.63;4.22;;;;;;;20.62;79.44;98597.53;4987810;28;20026;-70
2021/06/19 03:06:05;;;;;;;8.55;4.43;;;;;;;20.83;77.54;98598.38;4988594;28;20026;-70
2021/06/19 03:08:30;;;;;;;19.20;5.30;;;;;;;20.73;78.89;98611.03;4990088;28;20085;-70
2021/06/19 03:10:55;;;;;;;18.70;4.57;;;;;;;20.62;79.86;98616.78;4989083;28;20026;-70
2021/06/19 03:13:21;;;;;;;14.95;4.80;;;;;;;20.52;80.92;98634.06;4989110;28;20029;-70
2021/06/19 03:15:46;;;;;;;11.05;5.00;;;;;;;20.55;81.04;98650.03;4990043;28;20073;-71
2021/06/19 03:18:11;;;;;;;14.82;4.97;;;;;;;20.52;79.35;98639.56;4990132;28;20450;-70
2021/06/19 03:20:37;;;;;;;16.38;4.40;;;;;;;20.53;76.95;98631.03;4990329;28;20018;-71
2021/06/19 03:23:04;;;;;;;11.43;4.50;;;;;;;20.60;76.90;98646.50;4988530;28;20557;-71
2021/06/19 03:25:36;;;;;;;17.40;4.47;;;;;;;20.48;76.54;98635.69;4989229;28;20098;-71
2021/06/19 03:28:03;;;;;;;11.93;4.25;;;;;;;20.54;77.04;98662.13;4988388;28;20064;-71
2021/06/19 03:30:30;;;;;;;15.02;4.47;;;;;;;20.56;77.53;98663.50;4986929;28;20066;-71
2021/06/19 03:32:56;;;;;;;10.05;4.07;;;;;;;20.43;78.15;98654.94;4989578;28;20423;-71
2021/06/19 03:35:22;;;;;;;14.45;4.85;;;;;;;20.44;79.53;98668.41;4989652;28;20052;-70
2021/06/19 03:37:48;;;;;;;13.98;4.57;;;;;;;20.41;79.66;98687.34;4988025;28;20473;-71
2021/06/19 03:40:16;;;;;;;10.65;4.50;;;;;;;20.30;80.15;98679.09;4987428;28;20038;-71
2021/06/19 03:42:42;;;;;;;13.35;4.82;;;;;;;20.34;79.87;98684.88;4988786;28;20030;-69
2021/06/19 03:45:09;;;;;;;10.13;3.67;;;;;;;20.34;80.29;98660.97;4988263;28;20062;-70
2021/06/19 03:47:35;;;;;;;13.85;4.45;;;;;;;20.43;80.73;98687.91;4987441;28;20056;-71
2021/06/19 03:50:00;;;;;;;15.35;4.75;;;;;;;20.33;80.51;98686.78;4987930;28;20028;-71
2021/06/19 03:52:25;;;;;;;12.35;4.75;;;;;;;20.31;80.33;98683.47;4991562;28;20072;-70
2021/06/19 03:54:52;;;;;;;17.10;5.22;;;;;;;20.20;80.19;98673.56;4994649;28;20085;-71
2021/06/19 03:57:26;;;;;;;11.07;4.25;;;;;;;20.20;80.13;98683.69;4988553;28;20090;-71
2021/06/19 03:59:52;;;;;;;11.70;5.20;;;;;;;20.24;79.33;98696.63;4988874;28;20368;-71
2021/06/19 04:02:18;;;;;;;13.75;5.10;;;;;;;20.44;78.39;98709.63;4989610;28;20026;-71
2021/06/19 04:04:44;;;;;;;12.35;4.63;;;;;;;20.40;78.28;98693.94;4988560;28;20088;-71
2021/06/19 04:07:10;;;;;;;11.98;3.97;;;;;;;20.49;78.27;98697.84;4989735;28;20037;-72
2021/06/19 04:09:35;;;;;;;8.98;4.30;;;;;;;20.64;77.72;98711.63;4987924;28;20037;-72
2021/06/19 04:12:00;;;;;;;14.15;4.18;;;;;;;20.61;77.52;98692.94;4992981;28;20357;-73
2021/06/19 04:14:26;;;;;;;12.32;4.30;;;;;;;20.84;77.65;98721.03;4992844;28;20022;-73
2021/06/19 04:16:51;;;;;;;12.80;4.43;;;;;;;20.87;76.18;98703.97;4993553;28;20547;-73
2021/06/19 04:19:16;;;;;;;14.30;4.50;;;;;;;21.01;76.05;98699.56;4994440;28;20072;-73
2021/06/19 04:21:41;;;;;;;13.73;4.50;;;;;;;21.28;76.43;98732.34;4988157;28;20038;-72
2021/06/19 04:24:07;;;;;;;9.75;4.32;;;;;;;21.34;76.76;98735.91;4994455;28;20395;-67
2021/06/19 04:26:32;;;;;;;13.02;4.47;;;;;;;21.28;77.04;98720.50;4989629;28;20392;-69
2021/06/19 04:28:57;;;;;;;10.75;4.47;;;;;;;21.22;76.25;98742.53;4991791;28;20538;-68
2021/06/19 04:31:23;;;;;;;10.02;4.25;;;;;;;21.16;77.08;98729.84;4987248;28;20039;-68
2021/06/19 04:33:48;;;;;;;9.52;4.03;;;;;;;21.16;77.39;98740.03;4991157;28;20039;-69
2021/06/19 04:36:13;;;;;;;8.82;4.20;;;;;;;21.15;77.05;98749.41;4991670;28;20022;-67
2021/06/19 04:38:39;;;;;;;13.07;4.50;;;;;;;21.18;76.61;98748.84;4991520;28;20130;-68
2021/06/19 04:41:11;;;;;;;11.60;4.63;;;;;;;21.13;75.73;98744.16;4991833;28;20029;-67
2021/06/19 04:46:10;;;;;;;13.63;4.50;;;;;;;20.99;76.10;98741.13;4992260;28;20136;-68
2021/06/19 04:48:36;;;;;;;10.98;4.70;;;;;;;21.06;76.88;98757.34;4992381;28;20121;-69
2021/06/19 04:51:02;;;;;;;16.05;4.38;;;;;;;20.94;77.29;98751.28;4992862;28;20033;-68
2021/06/19 04:53:27;;;;;;;11.40;4.43;;;;;;;21.04;77.58;98769.72;4992881;28;20502;-69
2021/06/19 04:55:53;;;;;;;14.07;4.90;;;;;;;20.97;77.04;98753.50;4995361;28;20105;-72
2021/06/19 04:58:18;;;;;;;15.43;5.28;;;;;;;21.02;78.07;98765.31;4990855;28;20060;-63
2021/06/19 05:00:43;;;;;;;16.38;5.05;;;;;;;20.97;78.68;98765.31;4993556;28;20114;-68
2021/06/19 05:03:08;;;;;;;10.75;4.90;;;;;;;20.98;78.93;98766.13;4989552;28;20531;-67
2021/06/19 05:05:34;;;;;;;12.10;5.90;;;;;;;20.90;79.24;98763.91;4988952;28;20153;-66
2021/06/19 05:08:00;;;;;;;14.60;5.53;;;;;;;20.83;78.81;98755.94;4991464;28;20096;-68
2021/06/19 05:10:27;;;;;;;14.02;5.50;;;;;;;20.89;78.48;98759.53;4990819;28;20022;-68
2021/06/19 05:12:52;;;;;;;10.68;4.85;;;;;;;20.95;78.85;98759.25;4990464;28;20046;-67
2021/06/19 05:15:24;;;;;;;10.00;5.30;;;;;;;20.91;78.22;98754.59;4989705;28;20101;-66
2021/06/19 05:17:50;;;;;;;14.30;5.60;;;;;;;21.02;78.23;98768.06;4991763;28;20173;-68
2021/06/19 05:20:16;;;;;;;14.68;5.22;;;;;;;21.31;77.66;98769.50;4979342;28;20113;-68
2021/06/19 05:22:41;;;;;;;14.85;5.78;;;;;;;21.60;76.31;98775.31;4977392;28;20104;-65
2021/06/19 05:25:07;;;;;;;15.38;5.63;;;;;;;21.86;76.00;98778.84;4997660;28;20045;-65
2021/06/19 05:27:32;;;;;;;16.38;5.88;;;;;;;21.96;74.57;98762.31;4989577;28;20038;-63
2021/06/19 05:29:58;;;;;;;12.85;6.20;;;;;;;22.32;73.66;98789.78;4991068;28;20038;-66
2021/06/19 05:32:24;;;;;;;11.32;5.38;;;;;;;22.44;72.72;98761.91;4990761;28;20785;-65
2021/06/19 05:34:49;;;;;;;13.20;6.22;;;;;;;22.69;72.12;98783.03;4989930;28;20026;-65
2021/06/19 05:37:15;;;;;;;17.02;5.82;;;;;;;22.77;70.79;98779.69;4986089;28;20133;-66
2021/06/19 05:39:40;;;;;;;11.00;4.75;;;;;;;23.03;68.33;98777.63;4980044;28;20045;-67
2021/06/19 05:42:06;;;;;;;14.35;4.95;;;;;;;23.24;68.10;98755.38;4981504;28;20105;-68
2021/06/19 05:44:31;;;;;;;19.67;4.97;;;;;;;23.47;66.89;98759.34;4982451;28;20019;-67
2021/06/19 05:46:57;;;;;;;13.40;5.22;;;;;;;23.59;66.29;98741.28;4986170;28;20034;-68
2021/06/19 05:49:22;;;;;;;13.93;4.53;;;;;;;24.04;65.00;98779.84;4980137;28;20487;-67
2021/06/19 05:51:47;;;;;;;12.07;4.35;;;;;;;24.28;64.32;98777.91;4980412;28;20487;-67
2021/06/19 05:54:12;;;;;;;14.35;4.53;;;;;;;24.55;62.46;98776.53;4979752;28;20026;-64
2021/06/19 05:56:38;;;;;;;10.05;4.35;;;;;;;24.64;61.97;98782.22;4980509;28;20603;-67
2021/06/19 05:59:03;;;;;;;11.65;4.70;;;;;;;24.68;61.73;98775.81;4979908;28;20026;-68
2021/06/19 06:01:30;;;;;;;14.35;4.43;;;;;;;24.87;61.10;98778.59;4977451;28;20034;-67
2021/06/19 06:03:59;;;;;;;16.85;4.93;;;;;;;24.60;61.84;98759.88;4994032;28;20037;-67
2021/06/19 06:06:24;;;;;;;13.68;4.50;;;;;;;24.76;61.27;98776.25;4989060;28;20030;-68
2021/06/19 06:08:50;;;;;;;13.77;4.43;;;;;;;25.09;60.46;98775.22;4994779;28;20030;-67
2021/06/19 06:11:15;;;;;;;16.73;4.93;;;;;;;24.90;60.89;98775.22;4990377;28;20030;-64
2021/06/19 06:13:41;;;;;;;15.15;4.53;;;;;;;25.19;60.21;98760.44;4979125;28;20031;-66
2021/06/19 06:16:07;;;;;;;13.57;4.50;;;;;;;25.27;60.00;98789.38;4979005;28;20036;-70
2021/06/19 06:18:32;;;;;;;12.50;4.30;;;;;;;25.20;59.84;98786.16;4982643;28;20054;-71
2021/06/19 06:20:58;;;;;;;14.45;5.40;;;;;;;25.33;60.02;98788.19;4981276;28;20030;-71
2021/06/19 06:23:23;;;;;;;14.05;5.40;;;;;;;25.39;59.77;98764.84;4979202;28;20041;-71
2021/06/19 06:25:52;;;;;;;13.90;4.95;;;;;;;25.43;60.52;98788.03;4978308;28;20030;-70
2021/06/19 06:28:18;;;;;;;12.52;5.10;;;;;;;25.38;60.65;98768.72;4982060;28;20033;-71
2021/06/19 06:30:45;;;;;;;14.30;6.03;;;;;;;25.96;58.55;98781.31;4976220;28;20042;-71
2021/06/19 06:33:10;;;;;;;17.13;5.10;;;;;;;25.98;58.14;98765.22;4985603;28;20035;-71
2021/06/19 06:35:35;;;;;;;15.35;5.13;;;;;;;26.64;57.15;98765.88;4979213;28;20499;-71
2021/06/19 06:38:01;;;;;;;13.40;4.68;;;;;;;27.18;56.22;98766.91;4979399;28;20089;-68
2021/06/19 06:40:26;;;;;;;11.90;4.93;;;;;;;27.50;54.66;98756.69;4981181;28;20027;-67
2021/06/19 06:42:51;;;;;;;18.33;5.40;;;;;;;27.78;54.29;98770.44;4997026;28;20035;-67
2021/06/19 06:45:17;;;;;;;17.33;5.20;;;;;;;27.66;54.70;98749.59;4973140;28;20034;-67
2021/06/19 06:47:42;;;;;;;12.40;4.80;;;;;;;28.17;53.46;98772.50;4990239;28;20165;-69
2021/06/19 06:50:09;;;;;;;11.73;4.82;;;;;;;28.57;52.32;98758.56;4990290;28;20026;-68
2021/06/19 06:52:35;;;;;;;15.38;4.90;;;;;;;28.85;51.70;98759.13;4996001;28;20030;-68
2021/06/19 06:55:06;;;;;;;9.43;4.60;;;;;;;29.29;50.68;98762.75;4992766;28;20034;-67
2021/06/19 06:57:31;;;;;;;12.98;4.60;;;;;;;29.66;50.21;98760.50;4984814;28;20083;-68
2021/06/19 06:59:56;;;;;;;14.98;5.05;;;;;;;30.11;48.86;98766.41;4984049;28;20030;-69
2021/06/19 07:02:22;;;;;;;18.90;4.38;;;;;;;30.94;47.78;98767.03;4989559;28;20122;-67
2021/06/19 07:04:49;;;;;;;19.38;5.20;;;;;;;30.94;46.65;98764.22;4989963;28;20034;-68
2021/06/19 07:07:14;;;;;;;13.02;4.47;;;;;;;32.45;43.32;98760.09;4990062;28;20136;-67
2021/06/19 07:09:41;;;;;;;12.73;4.50;;;;;;;33.52;41.57;98753.41;4985757;28;20108;-66
2021/06/19 07:12:07;;;;;;;12.60;4.88;;;;;;;34.24;40.06;98753.38;4988596;28;20683;-68
2021/06/19 07:14:32;;;;;;;12.63;4.80;;;;;;;35.33;38.50;98749.91;4987732;28;20023;-69
2021/06/19 07:16:57;;;;;;;13.35;4.30;;;;;;;36.28;36.62;98746.53;4989425;28;20045;-68
2021/06/19 07:19:23;;;;;;;14.10;4.35;;;;;;;37.05;35.19;98751.00;4988659;28;20081;-69
2021/06/19 07:21:48;;;;;;;16.67;4.18;;;;;;;36.39;35.81;98753.16;4985310;28;20041;-70
2021/06/19 07:24:13;;;;;;;12.23;4.60;;;;;;;37.03;35.55;98758.22;4989461;28;20019;-70
2021/06/19 07:26:39;;;;;;;11.43;4.55;;;;;;;36.81;35.51;98748.59;4988746;28;20026;-69
2021/06/19 07:29:04;;;;;;;10.82;4.20;;;;;;;36.93;35.55;98753.19;4989245;28;20480;-68
2021/06/19 07:31:30;;;;;;;12.45;4.32;;;;;;;37.42;34.30;98740.97;4989456;28;20685;-69
2021/06/19 07:33:55;;;;;;;15.20;4.32;;;;;;;37.33;34.77;98746.91;4987584;28;20045;-69
2021/06/19 07:36:21;;;;;;;10.18;3.88;;;;;;;38.50;32.45;98752.22;4989332;28;20038;-68
2021/06/19 07:38:46;;;;;;;11.18;4.35;;;;;;;38.11;32.62;98738.53;4989318;28;20034;-69
2021/06/19 07:41:11;;;;;;;9.00;3.95;;;;;;;37.25;33.19;98737.53;4989102;28;20030;-69
2021/06/19 07:43:37;;;;;;;12.43;4.93;;;;;;;37.53;33.76;98739.13;4989082;28;20030;-68
2021/06/19 07:46:03;;;;;;;16.67;4.78;;;;;;;37.94;32.46;98741.97;4991434;28;20037;-69
2021/06/19 07:48:28;;;;;;;12.82;4.57;;;;;;;36.11;35.17;98732.97;4994012;28;20385;-69
2021/06/19 07:50:55;;;;;;;17.60;5.40;;;;;;;38.39;32.21;98737.16;4992693;28;20045;-69
2021/06/19 07:53:20;;;;;;;12.77;5.00;;;;;;;37.69;33.43;98734.03;4993422;28;20033;-69
2021/06/19 07:55:46;;;;;;;8.40;4.03;;;;;;;39.65;30.88;98727.38;4992839;28;20399;-69
2021/06/19 07:58:11;;;;;;;10.23;4.50;;;;;;;40.27;29.66;98706.44;4992986;28;20029;-69
2021/06/19 08:00:36;;;;;;;11.07;3.70;;;;;;;39.55;29.85;98711.19;4991623;28;20120;-70
2021/06/19 08:03:02;;;;;;;8.93;3.97;;;;;;;37.42;33.13;98701.47;4996808;28;20026;-69
2021/06/19 08:05:29;;;;;;;8.13;3.75;;;;;;;40.56;29.15;98698.75;4991081;28;22157;-68
2021/06/19 08:07:54;;;;;;;16.75;4.43;;;;;;;39.34;30.34;98703.44;4991147;28;20415;-68
2021/06/19 08:10:20;;;;;;;12.10;4.10;;;;;;;38.90;30.98;98691.06;4992587;28;20034;-68
2021/06/19 08:12:45;;;;;;;9.55;3.97;;;;;;;39.34;30.40;98694.94;4991393;28;20034;-68
2021/06/19 08:15:12;;;;;;;16.15;3.63;;;;;;;40.17;29.88;98688.22;4992450;28;20416;-68
2021/06/19 08:17:38;;;;;;;9.50;3.97;;;;;;;41.09;29.35;98675.13;4991633;28;20037;-70
2021/06/19 08:20:04;;;;;;;14.55;3.80;;;;;;;41.25;29.15;98690.88;4992896;28;20599;-69
2021/06/19 08:22:30;;;;;;;9.02;3.33;;;;;;;42.21;26.99;98675.22;4992445;28;20109;-69
2021/06/19 08:24:55;;;;;;;8.52;3.30;;;;;;;41.95;27.33;98686.03;4984036;28;20109;-70
2021/06/19 08:27:25;;;;;;;10.60;3.33;;;;;;;42.32;26.68;98683.69;4989184;28;20443;-70
2021/06/19 08:29:52;;;;;;;14.90;3.72;;;;;;;41.81;27.77;98680.41;4991230;28;20034;-70
2021/06/19 08:32:18;;;;;;;11.32;3.17;;;;;;;41.26;28.23;98681.91;4991274;28;20532;-70
2021/06/19 08:34:43;;;;;;;9.57;3.03;;;;;;;42.40;26.85;98669.00;4988385;28;20158;-71
2021/06/19 08:37:08;;;;;;;12.27;3.10;;;;;;;42.80;26.89;98685.69;4972102;28;20117;-69
2021/06/19 08:39:34;;;;;;;10.77;3.60;;;;;;;42.25;27.00;98679.66;4982081;28;20400;-70
2021/06/19 08:42:00;;;;;;;9.98;2.63;;;;;;;43.53;26.14;98682.31;4993551;28;20112;-70
2021/06/19 08:44:28;;;;;;;12.52;3.00;;;;;;;42.61;25.93;98689.91;4995630;28;20480;-70
2021/06/19 08:46:55;;;;;;;11.57;3.28;;;;;;;43.32;25.15;98682.63;4991854;28;20042;-69
2021/06/19 08:49:22;;;;;;;7.60;2.70;;;;;;;42.59;26.27;98681.00;4991213;28;20034;-70
2021/06/19 08:51:50;;;;;;;10.05;3.28;;;;;;;43.94;26.16;98678.47;4990312;28;20030;-70
2021/06/19 08:54:16;;;;;;;7.75;3.17;;;;;;;43.75;25.99;98677.09;4983540;28;20031;-70
2021/06/19 08:56:42;;;;;;;9.05;3.55;;;;;;;43.46;26.66;98673.84;4991059;28;20034;-69
2021/06/19 08:59:08;;;;;;;10.27;3.55;;;;;;;43.19;26.50;98676.69;4992437;28;20369;-69
2021/06/19 09:01:33;;;;;;;10.82;3.38;;;;;;;42.20;25.99;98667.94;5000055;28;20036;-69
2021/06/19 09:04:03;;;;;;;7.70;3.20;;;;;;;41.39;27.30;98668.06;4991578;28;20030;-70
2021/06/19 09:06:29;;;;;;;8.52;2.95;;;;;;;42.88;26.61;98664.44;4989731;28;20129;-70
2021/06/19 09:09:10;;;;;;;10.00;3.28;;;;;;;43.15;26.23;98673.03;4987679;28;20117;-71
2021/06/19 09:11:39;;;;;;;6.68;2.97;;;;;;;44.28;25.59;98677.50;4989155;28;20040;-70
2021/06/19 09:14:13;;;;;;;8.90;3.40;;;;;;;43.61;26.57;98677.34;4991662;28;20454;-69
2021/06/19 09:16:41;;;;;;;6.13;2.95;;;;;;;44.23;25.20;98672.31;4990439;28;20040;-70
2021/06/19 09:19:26;;;;;;;6.68;2.95;;;;;;;43.51;25.65;98666.88;4989617;28;20030;-70
2021/06/19 09:22:11;;;;;;;11.00;3.30;;;;;;;43.40;25.81;98660.53;4988492;28;20105;-70
2021/06/19 09:24:55;;;;;;;11.38;3.50;;;;;;;43.46;25.99;98668.16;4990087;28;20114;-70
2021/06/19 09:27:46;;;;;;;11.73;3.45;;;;;;;44.06;25.01;98674.22;4985738;28;20034;-69
2021/06/19 09:30:20;;;;;;;8.38;3.10;;;;;;;44.05;24.54;98671.81;4983095;28;20026;-69
2021/06/19 09:32:48;;;;;;;6.10;2.90;;;;;;;44.22;24.64;98681.28;4990834;28;20034;-69
2021/06/19 09:35:17;;;;;;;8.43;3.20;;;;;;;43.45;24.80;98674.31;4989939;28;20058;-70
2021/06/19 09:37:45;;;;;;;9.10;3.10;;;;;;;43.38;25.23;98668.69;4989767;28;20030;-69
2021/06/19 09:40:36;;;;;;;9.27;3.20;;;;;;;42.63;25.43;98674.03;4989582;28;20072;-70
2021/06/19 09:43:15;;;;;;;9.25;2.75;;;;;;;43.05;26.62;98657.72;4989502;28;20026;-71
2021/06/19 09:45:57;;;;;;;9.57;3.78;;;;;;;43.33;25.96;98662.22;4989898;28;20396;-69
2021/06/19 09:48:30;;;;;;;10.27;3.25;;;;;;;44.30;24.56;98671.34;4988017;28;20065;-70
2021/06/19 09:51:14;;;;;;;7.70;3.15;;;;;;;43.65;25.78;98660.19;4990013;28;20034;-70
2021/06/19 09:53:41;;;;;;;8.00;3.20;;;;;;;42.73;26.42;98652.38;5001525;28;20026;-71
2021/06/19 09:56:08;;;;;;;6.25;3.28;;;;;;;43.93;25.45;98654.03;4990262;28;20038;-70
2021/06/19 09:58:39;;;;;;;8.32;3.35;;;;;;;42.79;25.71;98625.13;4990112;28;20117;-70
2021/06/19 10:01:04;;;;;;;7.30;3.30;;;;;;;43.45;25.90;98646.63;4991049;28;20093;-70
2021/06/19 10:03:30;;;;;;;10.88;3.58;;;;;;;42.14;26.75;98638.34;4990850;28;20432;-70
2021/06/19 10:05:55;;;;;;;15.85;3.65;;;;;;;42.63;26.48;98624.84;4989403;28;20022;-70
2021/06/19 10:08:23;;;;;;;7.65;3.70;;;;;;;41.03;28.33;98639.84;4988867;28;20036;-70
2021/06/19 10:10:48;;;;;;;;;;;;;;;42.54;26.74;98616.84;4989538;28;20041;-70
2021/06/19 10:13:14;;;;;;;9.57;3.33;;;;;;;43.47;26.68;98620.53;4990511;28;19922;-71
2021/06/19 10:15:40;;;;;;;11.40;3.50;;;;;;;44.16;25.35;98607.63;4988655;28;20038;-70
2021/06/19 10:18:06;;;;;;;9.45;3.67;;;;;;;43.51;25.37;98602.16;4990895;28;20117;-70
2021/06/19 10:20:31;;;;;;;13.40;3.83;;;;;;;44.16;24.94;98603.97;4990494;28;20036;-72
2021/06/19 10:22:57;;;;;;;6.65;2.92;;;;;;;44.34;24.81;98603.66;5006900;28;20037;-70
2021/06/19 10:25:26;;;;;;;9.13;3.63;;;;;;;43.73;25.84;98582.72;4992220;28;20026;-70
2021/06/19 10:27:52;;;;;;;8.35;3.00;;;;;;;43.71;25.65;98592.94;4989449;28;20309;-70
2021/06/19 10:30:23;;;;;;;14.35;3.47;;;;;;;43.02;26.83;98586.59;4993058;28;20646;-70
2021/06/19 10:32:50;;;;;;;10.73;3.45;;;;;;;42.45;27.21;98579.56;4993433;28;20026;-70
2021/06/19 10:35:21;;;;;;;14.82;3.75;;;;;;;42.86;26.03;98568.09;4991519;28;20651;-70
2021/06/19 10:37:49;;;;;;;10.18;3.17;;;;;;;42.52;26.46;98562.41;4993403;28;20424;-70
2021/06/19 10:40:14;;;;;;;13.45;3.75;;;;;;;44.12;25.43;98564.09;4993461;28;20041;-71
2021/06/19 10:42:39;;;;;;;8.63;3.43;;;;;;;43.51;25.77;98553.72;4991878;28;20447;-70
2021/06/19 10:45:14;;;;;;;12.88;4.00;;;;;;;42.02;27.89;98551.56;4992746;28;20105;-70
2021/06/19 10:47:58;;;;;;;11.20;3.83;;;;;;;42.40;27.68;98549.56;4992697;28;20451;-69
2021/06/19 10:50:25;;;;;;;11.23;3.55;;;;;;;40.82;28.59;98544.28;4992836;28;20034;-69
2021/06/19 10:53:08;;;;;;;11.38;3.42;;;;;;;42.32;26.35;98550.03;4992621;28;20118;-69
2021/06/19 10:55:56;;;;;;;14.45;4.22;;;;;;;43.86;24.65;98545.03;4991962;28;20034;-70
2021/06/19 10:58:26;;;;;;;8.23;3.08;;;;;;;43.46;24.73;98537.13;4991967;28;20034;-69
2021/06/19 11:01:02;;;;;;;11.13;2.97;;;;;;;41.64;26.58;98525.91;4990092;28;20029;-70
2021/06/19 11:03:48;;;;;;;9.98;3.50;;;;;;;41.75;27.35;98522.97;4992303;28;20046;-69
2021/06/19 11:06:22;;;;;;;13.95;3.72;;;;;;;42.43;24.82;98520.25;4980821;28;20034;-69
2021/06/19 11:09:15;;;;;;;11.18;3.55;;;;;;;42.89;24.45;98518.88;4992199;28;20519;-69
2021/06/19 11:11:49;;;;;;;6.45;3.30;;;;;;;41.45;26.63;98507.41;4992363;28;20054;-69
2021/06/19 11:14:39;;;;;;;11.80;3.58;;;;;;;41.64;26.34;98506.03;4991428;28;20126;-69
2021/06/19 11:17:06;;;;;;;12.20;3.83;;;;;;;43.09;24.87;98513.25;4991108;28;20022;-69
2021/06/19 11:19:44;;;;;;;7.75;3.22;;;;;;;42.18;25.89;98496.97;4991840;28;20113;-70
2021/06/19 11:22:38;;;;;;;14.13;3.70;;;;;;;42.18;26.51;98502.66;4985761;28;20031;-70
2021/06/19 11:25:33;;;;;;;9.93;3.30;;;;;;;41.26;27.54;98490.91;4985673;28;20035;-70
2021/06/19 11:28:00;;;;;;;17.60;3.70;;;;;;;42.21;25.49;98496.09;4987915;28;20065;-70
2021/06/19 11:30:34;;;;;;;7.20;3.00;;;;;;;42.12;25.56;98490.94;4988966;28;20105;-69